Terminal Aerodrome Forecast
Issued by NWS

Home | Current Version | Previous Version | Text Only | Print | Product List | Glossary Off
Versions: 1 2 3 4 5 6 7 8 9 10 11 12 13 14 15 16 17 18 19

782
FTUS43 KMPX 160928 AAA
TAFRNH
TAF AMD
KRNH 160928Z 1609/1706 18005KT 5SM BR BKN250
     FM161300 VRB03KT P6SM BKN150
     FM162000 VRB03KT P6SM SCT040 BKN120
     FM162200 08004KT P6SM SCT030 OVC060
     FM170200 05004KT 4SM -FZRASN BR SCT015 OVC025=

USA.gov is the U.S. government's official web portal to all federal, state and local government web resources and services.